Time;durP1;ratioP1;P1;durP2;ratioP2;P2;SDS_P1;SDS_P2;PMS_P1;PMS_P2;Temp;Humidity;BMP_temperature;BMP_pressure;BME280_temperature;BME280_humidity;BME280_pressure;Samples;Min_cycle;Max_cycle;Signal;HPM_P1;HPM_P2
2021/07/10 00:00:37;;;;;;;40.95;24.20;;;;;;;15.72;79.58;102037.84;4914180;29;20103;-88
2021/07/10 00:03:18;;;;;;;46.28;26.42;;;;;;;15.79;79.04;102041.03;4902626;29;20028;-88
2021/07/10 00:09:28;;;;;;;40.03;22.50;;;;;;;15.73;79.29;102036.94;4942535;29;20056;-87
2021/07/10 00:11:54;;;;;;;40.35;23.10;;;;;;;15.70;79.34;102034.44;4896691;29;20050;-87
2021/07/10 00:14:41;;;;;;;34.17;20.50;;;;;;;15.67;79.00;102037.28;4943193;29;20051;-89
2021/07/10 00:17:12;;;;;;;31.98;19.17;;;;;;;15.68;79.36;102030.97;4912214;29;20087;-88
2021/07/10 00:19:41;;;;;;;38.13;21.65;;;;;;;15.73;79.01;102036.06;4911234;29;20083;-89
2021/07/10 00:22:11;;;;;;;35.45;21.67;;;;;;;15.71;78.99;102033.47;4911791;29;20104;-89
2021/07/10 00:24:42;;;;;;;44.13;24.05;;;;;;;15.67;78.89;102035.44;4911659;29;20029;-88
2021/07/10 00:27:08;;;;;;;43.25;24.70;;;;;;;15.62;79.39;102026.00;4912344;29;20020;-89
2021/07/10 00:29:36;;;;;;;47.90;25.67;;;;;;;15.57;79.69;102032.44;4912097;29;20092;-88
2021/07/10 00:34:47;;;;;;;43.33;23.37;;;;;;;15.48;79.78;102022.28;5022401;23;20116;-91
2021/07/10 00:37:16;;;;;;;44.65;23.20;;;;;;;15.44;79.73;102018.94;4916937;29;20315;-89
2021/07/10 00:39:42;;;;;;;40.10;20.95;;;;;;;15.38;79.60;102013.06;4915002;29;20040;-90
2021/07/10 00:42:08;;;;;;;42.00;21.42;;;;;;;15.33;79.86;102015.97;4900028;29;20040;-88
2021/07/10 00:44:35;;;;;;;44.35;24.08;;;;;;;15.27;80.21;102011.84;4915566;29;20059;-88
2021/07/10 00:47:03;;;;;;;36.08;21.05;;;;;;;15.25;80.10;102010.22;4902463;29;20036;-89
2021/07/10 00:49:30;;;;;;;43.83;21.60;;;;;;;15.26;80.25;102015.47;4871759;29;20075;-90
2021/07/10 00:51:59;;;;;;;39.58;21.88;;;;;;;15.31;80.52;102005.41;4883600;29;20073;-88
2021/07/10 00:54:27;;;;;;;38.30;20.55;;;;;;;15.40;79.96;102005.84;4869139;29;20070;-87
2021/07/10 00:56:58;;;;;;;46.63;24.58;;;;;;;15.46;80.06;101994.84;4819457;29;20056;-89
2021/07/10 00:59:30;;;;;;;44.13;24.88;;;;;;;15.48;79.84;102008.97;4853972;29;20048;-89
2021/07/10 01:01:59;;;;;;;50.28;25.77;;;;;;;15.53;79.90;102003.38;4856919;29;20049;-89
2021/07/10 01:04:30;;;;;;;44.67;23.70;;;;;;;15.54;79.74;101997.97;4883528;29;20052;-89
2021/07/10 01:06:58;;;;;;;47.05;25.05;;;;;;;15.62;79.50;101992.19;4864244;29;20043;-89
2021/07/10 01:09:31;;;;;;;48.45;24.00;;;;;;;15.67;79.44;101992.78;4879123;29;20061;-87
2021/07/10 01:12:00;;;;;;;43.17;23.95;;;;;;;15.70;78.92;101999.75;4875961;29;20083;-88
2021/07/10 01:14:43;;;;;;;37.97;21.67;;;;;;;15.76;78.75;101993.22;4877381;29;20037;-87
2021/07/10 01:17:09;;;;;;;34.42;21.10;;;;;;;15.70;78.53;101981.09;4877337;29;20040;-88
2021/07/10 01:19:36;;;;;;;33.75;18.48;;;;;;;15.74;78.49;101987.09;4860661;29;20020;-88
2021/07/10 01:22:06;;;;;;;34.80;20.00;;;;;;;15.74;78.30;101974.63;4891798;29;20066;-88
2021/07/10 01:24:37;;;;;;;34.40;19.98;;;;;;;15.74;77.99;101984.44;4876883;29;20096;-88
2021/07/10 01:27:23;;;;;;;40.63;20.52;;;;;;;15.72;78.43;101981.84;4879627;29;20037;-88
2021/07/10 01:29:52;;;;;;;41.72;20.50;;;;;;;15.72;78.71;101984.50;4860776;29;20072;-88
2021/07/10 01:32:28;;;;;;;39.95;22.27;;;;;;;15.72;78.78;101981.00;4876016;29;20052;-88
2021/07/10 01:34:57;;;;;;;40.47;23.13;;;;;;;15.73;78.49;101980.06;4858700;29;20497;-88
2021/07/10 01:37:24;;;;;;;42.75;23.33;;;;;;;15.69;78.59;101974.91;4899938;29;20104;-88
2021/07/10 01:39:54;;;;;;;40.22;23.60;;;;;;;15.73;78.82;101977.38;4872094;29;20061;-89
2021/07/10 01:42:22;;;;;;;44.60;24.25;;;;;;;15.73;78.57;101980.94;4903721;29;20084;-88
2021/07/10 01:44:51;;;;;;;47.45;23.92;;;;;;;15.75;78.75;101978.16;4872516;29;20021;-89
2021/07/10 01:47:27;;;;;;;40.33;23.98;;;;;;;15.74;78.28;101976.44;4874331;29;20060;-90
2021/07/10 01:49:55;;;;;;;44.25;24.50;;;;;;;15.72;78.57;101971.19;4888381;29;20025;-89
2021/07/10 01:52:23;;;;;;;40.58;22.15;;;;;;;15.67;78.23;101962.59;4857493;29;20025;-89
2021/07/10 01:54:48;;;;;;;38.38;20.30;;;;;;;15.61;78.46;101968.28;4854174;29;20070;-90
2021/07/10 01:57:14;;;;;;;41.28;23.45;;;;;;;15.54;78.86;101957.97;4849845;29;20033;-90
2021/07/10 01:59:49;;;;;;;40.53;22.52;;;;;;;15.52;78.85;101961.66;4839691;29;20030;-89
2021/07/10 02:02:14;;;;;;;36.92;19.33;;;;;;;15.50;78.91;101959.06;4854075;29;20042;-90
2021/07/10 02:04:45;;;;;;;34.83;20.63;;;;;;;15.50;79.38;101952.91;4838538;29;20025;-90
2021/07/10 02:07:13;;;;;;;40.22;23.02;;;;;;;15.49;79.09;101952.03;4884451;29;20077;-90
2021/07/10 02:09:44;;;;;;;39.55;22.05;;;;;;;15.48;79.44;101955.66;4884286;29;20074;-90
2021/07/10 02:12:13;;;;;;;43.38;23.02;;;;;;;15.49;79.86;101952.03;4862989;29;20063;-90
2021/07/10 02:14:42;;;;;;;46.95;22.27;;;;;;;15.48;80.01;101950.31;4850496;29;20036;-89
2021/07/10 02:17:09;;;;;;;53.97;24.42;;;;;;;15.43;80.11;101942.59;4876377;29;20504;-89
2021/07/10 02:19:40;;;;;;;48.88;24.02;;;;;;;15.40;80.34;101947.22;4863391;29;20064;-90
2021/07/10 02:22:09;;;;;;;54.15;26.55;;;;;;;15.30;81.11;101939.75;4863795;29;20044;-90
2021/07/10 02:24:37;;;;;;;51.85;24.70;;;;;;;15.27;81.20;101936.38;4848147;29;20045;-89
2021/07/10 02:27:05;;;;;;;51.55;26.20;;;;;;;15.21;81.51;101932.25;4845770;29;20041;-90
2021/07/10 02:29:40;;;;;;;48.85;24.63;;;;;;;15.18;81.59;101935.09;4845086;29;20207;-89
2021/07/10 02:32:08;;;;;;;46.42;22.85;;;;;;;15.20;81.93;101930.56;4893121;29;20072;-89
2021/07/10 02:34:35;;;;;;;51.50;24.45;;;;;;;15.23;81.42;101926.84;4866461;29;20044;-89
2021/07/10 02:37:03;;;;;;;57.65;27.08;;;;;;;15.21;81.13;101921.59;4882344;29;20051;-90
2021/07/10 02:39:49;;;;;;;47.72;23.67;;;;;;;15.11;81.43;101915.06;4905883;29;20051;-88
2021/07/10 02:42:16;;;;;;;51.20;23.40;;;;;;;15.02;81.52;101917.28;4880936;29;20047;-88
2021/07/10 02:44:43;;;;;;;48.13;23.92;;;;;;;14.97;81.42;101913.16;4866387;29;20036;-87
2021/07/10 02:47:11;;;;;;;50.85;24.15;;;;;;;14.92;81.87;101906.28;4881504;29;20032;-88
2021/07/10 02:49:53;;;;;;;50.90;25.77;;;;;;;14.87;81.94;101908.34;4897596;29;20032;-88
2021/07/10 02:52:20;;;;;;;42.53;21.05;;;;;;;14.84;81.85;101916.50;4913083;29;20039;-88
2021/07/10 02:54:47;;;;;;;48.15;22.90;;;;;;;14.84;81.89;101915.63;4895508;29;20032;-89
2021/07/10 02:57:18;;;;;;;51.35;23.80;;;;;;;14.88;82.33;101910.06;4883117;29;20035;-89
2021/07/10 02:59:48;;;;;;;54.78;24.80;;;;;;;14.89;82.18;101906.44;4917433;29;20043;-91
2021/07/10 03:02:14;;;;;;;44.72;21.70;;;;;;;14.86;81.89;101900.44;4898483;29;20056;-90
2021/07/10 03:04:50;;;;;;;46.72;22.70;;;;;;;14.83;81.73;101901.44;4901876;29;20067;-91
2021/07/10 03:07:16;;;;;;;55.20;25.98;;;;;;;14.74;81.94;101894.78;4901760;29;20040;-91
2021/07/10 03:09:49;;;;;;;43.40;21.38;;;;;;;14.65;81.50;101889.97;4888745;29;20038;-89
2021/07/10 03:12:15;;;;;;;43.22;20.40;;;;;;;14.55;81.96;101884.28;4921477;29;20044;-89
2021/07/10 03:14:45;;;;;;;48.42;23.02;;;;;;;14.45;82.00;101878.56;4922746;29;20099;-89
2021/07/10 03:17:35;;;;;;;56.38;25.80;;;;;;;14.38;82.34;101875.38;4876877;29;20131;-89
2021/07/10 03:20:04;;;;;;;48.50;22.20;;;;;;;14.29;82.33;101883.84;4910000;29;20057;-89
2021/07/10 03:22:34;;;;;;;43.78;20.38;;;;;;;14.24;82.51;101878.78;4903046;29;20096;-91
2021/07/10 03:25:04;;;;;;;58.65;24.15;;;;;;;14.19;83.16;101886.13;4916481;29;20072;-90
2021/07/10 03:27:32;;;;;;;49.10;22.00;;;;;;;14.15;82.79;101876.59;4886066;29;20055;-91
2021/07/10 03:29:58;;;;;;;53.30;24.00;;;;;;;14.14;83.15;101870.41;4885199;29;20032;-92
2021/07/10 03:32:28;;;;;;;53.95;22.77;;;;;;;14.13;83.39;101870.47;4901126;29;20036;-91
2021/07/10 03:34:56;;;;;;;61.25;25.05;;;;;;;14.15;83.50;101881.91;4916315;29;20055;-91
2021/07/10 03:37:24;;;;;;;57.38;24.98;;;;;;;14.19;84.10;101875.47;4884189;29;20040;-93
2021/07/10 03:39:49;;;;;;;57.85;23.75;;;;;;;14.26;84.15;101876.88;4898768;29;20131;-91
2021/07/10 03:42:18;;;;;;;54.83;25.20;;;;;;;14.40;83.89;101877.97;4883642;29;20056;-91
2021/07/10 03:44:44;;;;;;;64.32;26.80;;;;;;;14.54;83.84;101882.56;4882527;29;20040;-91
2021/07/10 03:47:20;;;;;;;65.32;27.50;;;;;;;14.68;83.65;101882.69;4884239;29;20043;-90
2021/07/10 03:49:46;;;;;;;61.15;27.08;;;;;;;14.81;83.24;101884.72;4900722;29;20040;-90
2021/07/10 03:52:16;;;;;;;61.78;27.60;;;;;;;14.93;83.10;101881.38;4883574;29;20040;-90
2021/07/10 03:54:44;;;;;;;60.65;28.05;;;;;;;15.06;82.57;101886.88;4901524;29;20031;-88
2021/07/10 03:57:09;;;;;;;59.83;29.17;;;;;;;15.17;82.85;101880.09;4899406;29;20404;-88
2021/07/10 03:59:35;;;;;;;60.28;28.73;;;;;;;15.27;82.84;101878.63;4888214;29;20020;-85
2021/07/10 04:02:02;;;;;;;58.35;28.63;;;;;;;15.34;82.44;101879.16;4902771;29;20055;-86
2021/07/10 04:04:31;;;;;;;56.40;28.98;;;;;;;15.41;82.53;101875.16;4919236;29;20099;-87
2021/07/10 04:06:57;;;;;;;54.13;28.55;;;;;;;15.50;81.81;101876.44;4919252;29;20496;-90
2021/07/10 04:09:25;;;;;;;57.35;29.08;;;;;;;15.59;81.95;101879.53;4915713;29;20123;-90
2021/07/10 04:11:52;;;;;;;55.38;29.00;;;;;;;15.66;81.68;101872.88;4896577;29;20040;-92
2021/07/10 04:14:22;;;;;;;56.05;29.23;;;;;;;15.73;81.36;101879.59;4914901;29;20051;-89
2021/07/10 04:16:52;;;;;;;52.80;26.67;;;;;;;15.77;81.09;101881.13;4915115;29;20013;-89
2021/07/10 04:19:20;;;;;;;54.35;28.88;;;;;;;15.82;80.72;101872.84;4881605;29;20124;-90
2021/07/10 04:21:46;;;;;;;57.83;28.55;;;;;;;15.87;80.37;101869.91;4896281;29;20036;-92
2021/07/10 04:24:12;;;;;;;53.28;28.30;;;;;;;15.97;80.15;101873.78;4897835;29;20048;-89
2021/07/10 04:26:39;;;;;;;54.97;28.08;;;;;;;16.02;79.65;101873.53;4884987;29;20063;-91
2021/07/10 04:29:07;;;;;;;53.33;27.30;;;;;;;16.08;79.36;101873.16;4885365;29;20126;-90
2021/07/10 04:31:35;;;;;;;52.17;27.35;;;;;;;16.14;78.96;101879.91;4914162;29;20467;-87
2021/07/10 04:34:01;;;;;;;53.28;26.85;;;;;;;16.21;78.37;101875.91;4915946;24;20076;-89
2021/07/10 04:36:26;;;;;;;34.78;21.10;;;;;;;16.17;76.55;101869.94;4858364;29;20076;-87
2021/07/10 04:38:52;;;;;;;39.88;22.40;;;;;;;16.26;76.35;101873.84;4888241;29;20040;-90
2021/07/10 04:41:17;;;;;;;36.97;22.00;;;;;;;16.24;76.57;101873.06;4857869;29;20045;-92
2021/07/10 04:43:43;;;;;;;39.65;22.10;;;;;;;16.36;76.17;101876.81;4874376;29;20391;-88
2021/07/10 04:46:09;;;;;;;33.22;20.30;;;;;;;16.42;75.74;101868.44;4858008;29;20071;-90
2021/07/10 04:48:35;;;;;;;40.58;22.42;;;;;;;16.58;75.49;101871.94;4843646;29;20472;-89
2021/07/10 04:51:03;;;;;;;47.30;27.40;;;;;;;16.65;76.11;101866.13;4873519;29;20035;-90
2021/07/10 04:53:29;;;;;;;46.58;26.02;;;;;;;16.72;76.58;101869.28;4856288;29;20040;-89
2021/07/10 04:55:54;;;;;;;46.88;24.58;;;;;;;16.84;76.49;101870.31;4842128;29;20144;-87
2021/07/10 04:58:20;;;;;;;40.92;24.98;;;;;;;16.89;75.86;101864.66;4903205;29;20032;-88
2021/07/10 05:00:57;;;;;;;47.47;26.30;;;;;;;16.97;75.68;101862.38;4888494;29;20388;-88
2021/07/10 05:03:26;;;;;;;42.15;25.35;;;;;;;17.01;75.28;101861.22;4858778;29;20036;-89
2021/07/10 05:05:57;;;;;;;45.35;26.02;;;;;;;17.08;74.76;101861.72;4842143;29;20040;-88
2021/07/10 05:08:23;;;;;;;43.10;25.70;;;;;;;17.16;74.33;101861.22;4857981;29;20503;-88
2021/07/10 05:10:54;;;;;;;41.40;26.00;;;;;;;17.12;74.28;101867.69;4873576;29;20025;-89
2021/07/10 05:13:20;;;;;;;45.17;25.52;;;;;;;17.12;74.15;101870.38;4875325;29;20031;-87
2021/07/10 05:15:48;;;;;;;46.08;26.23;;;;;;;17.16;74.05;101870.06;4874036;29;20103;-87
2021/07/10 05:18:14;;;;;;;44.15;25.77;;;;;;;17.16;73.94;101864.72;4893555;29;20064;-87
2021/07/10 05:20:42;;;;;;;46.30;27.83;;;;;;;17.24;74.10;101858.88;4864547;29;20020;-88
2021/07/10 05:23:37;;;;;;;45.75;28.23;;;;;;;17.25;73.88;101862.41;4901479;29;20048;-89
2021/07/10 05:26:18;;;;;;;44.67;28.55;;;;;;;17.28;73.36;101867.56;4846726;29;20109;-89
2021/07/10 05:28:45;;;;;;;45.20;27.65;;;;;;;17.34;73.63;101861.81;4834583;29;20041;-89
2021/07/10 05:31:40;;;;;;;47.63;27.50;;;;;;;17.37;73.01;101861.63;4850216;29;20045;-88
2021/07/10 05:34:16;;;;;;;44.17;27.10;;;;;;;17.55;72.07;101859.56;4864187;29;20054;-90
2021/07/10 05:36:49;;;;;;;45.70;25.48;;;;;;;17.63;72.02;101859.03;4844297;29;20066;-89
2021/07/10 05:39:18;;;;;;;39.28;23.90;;;;;;;17.74;71.29;101858.31;4855333;29;20042;-91
2021/07/10 05:41:52;;;;;;;32.42;20.02;;;;;;;17.77;70.08;101852.75;4842296;29;20110;-89
2021/07/10 05:44:18;;;;;;;29.35;19.08;;;;;;;17.87;69.63;101852.13;4854975;29;20037;-90
2021/07/10 05:46:45;;;;;;;32.20;19.08;;;;;;;17.99;68.99;101853.09;4840010;29;20096;-89
2021/07/10 05:49:12;;;;;;;29.90;19.90;;;;;;;18.10;68.60;101853.22;4824303;29;20054;-88
2021/07/10 05:51:39;;;;;;;30.63;19.15;;;;;;;18.18;68.42;101852.72;4837634;29;20054;-87
2021/07/10 05:54:09;;;;;;;27.55;18.85;;;;;;;18.17;67.83;101856.34;4837488;29;20037;-88
2021/07/10 05:56:35;;;;;;;31.50;20.40;;;;;;;18.27;68.07;101845.84;4830545;29;20054;-88
2021/07/10 05:59:05;;;;;;;30.48;18.77;;;;;;;18.18;67.77;101850.03;4820121;29;20478;-88
2021/07/10 06:01:38;;;;;;;29.60;18.08;;;;;;;18.14;67.84;101853.88;4821092;29;20080;-89
2021/07/10 06:04:04;;;;;;;33.45;20.70;;;;;;;18.27;67.49;101848.53;4859061;29;20060;-89
2021/07/10 06:06:32;;;;;;;26.83;18.42;;;;;;;18.37;66.77;101846.91;4861281;29;20040;-87
2021/07/10 06:08:59;;;;;;;27.50;18.35;;;;;;;18.14;68.01;101848.53;4872753;29;20040;-90
2021/07/10 06:11:32;;;;;;;24.90;18.35;;;;;;;18.41;66.68;101845.75;4845290;29;20025;-90
2021/07/10 06:13:57;;;;;;;28.00;18.50;;;;;;;18.53;66.09;101846.69;4873023;29;20009;-88
2021/07/10 06:16:24;;;;;;;22.90;16.52;;;;;;;18.59;65.94;101847.22;4861071;29;20048;-89
2021/07/10 06:18:54;;;;;;;23.88;16.95;;;;;;;18.60;66.03;101843.56;4869174;29;20514;-89
2021/07/10 06:21:23;;;;;;;23.30;16.42;;;;;;;18.81;65.02;101846.53;4860026;29;20033;-89
2021/07/10 06:23:50;;;;;;;22.77;15.93;;;;;;;18.82;64.52;101848.25;4871489;29;20048;-88
2021/07/10 06:26:19;;;;;;;22.25;16.05;;;;;;;18.98;64.00;101849.81;4844462;29;20037;-90
2021/07/10 06:28:47;;;;;;;21.45;14.60;;;;;;;19.07;63.29;101850.94;4859702;29;20025;-88
2021/07/10 06:31:14;;;;;;;21.20;15.82;;;;;;;19.25;63.32;101854.97;4863813;29;20039;-88
2021/07/10 06:33:42;;;;;;;20.50;15.02;;;;;;;19.53;62.16;101849.38;4859300;29;20041;-88
2021/07/10 06:36:09;;;;;;;23.10;15.57;;;;;;;19.62;61.86;101848.69;4856877;29;20053;-88
2021/07/10 06:38:34;;;;;;;20.90;15.90;;;;;;;19.40;62.31;101855.69;4885975;29;20061;-89
2021/07/10 06:41:00;;;;;;;22.83;15.40;;;;;;;18.96;63.73;101847.25;4886218;29;20041;-88
2021/07/10 06:43:28;;;;;;;22.10;15.20;;;;;;;19.42;62.34;101850.19;4871358;29;20033;-89
2021/07/10 06:45:56;;;;;;;20.25;15.23;;;;;;;19.53;62.08;101863.63;4872838;29;20120;-87
2021/07/10 06:48:22;;;;;;;20.33;14.95;;;;;;;19.40;61.97;101861.03;4888112;29;20013;-89
2021/07/10 06:50:48;;;;;;;21.23;15.27;;;;;;;19.47;62.07;101853.38;4870613;29;20024;-88
2021/07/10 06:53:23;;;;;;;23.58;16.35;;;;;;;19.58;61.80;101857.94;4887263;29;20021;-89
2021/07/10 06:55:49;;;;;;;21.83;15.38;;;;;;;19.46;62.77;101859.72;4887810;29;20033;-89
2021/07/10 06:58:15;;;;;;;20.65;15.82;;;;;;;19.32;62.68;101859.88;4886159;29;20072;-84
2021/07/10 07:00:41;;;;;;;20.88;15.00;;;;;;;19.17;62.95;101860.91;4869411;29;20107;-85
2021/07/10 07:03:07;;;;;;;24.05;14.77;;;;;;;19.37;62.12;101855.91;4884969;29;20028;-86
2021/07/10 07:05:33;;;;;;;19.80;14.40;;;;;;;18.98;63.31;101861.41;4886680;29;20017;-86
2021/07/10 07:08:09;;;;;;;19.88;15.13;;;;;;;19.08;63.52;101855.38;4871728;29;20090;-85
2021/07/10 07:10:35;;;;;;;19.23;13.60;;;;;;;19.46;61.79;101865.09;4907011;29;20025;-84
2021/07/10 07:13:00;;;;;;;21.33;15.45;;;;;;;19.57;61.45;101863.41;4887895;29;20102;-86
2021/07/10 07:15:26;;;;;;;23.90;16.10;;;;;;;19.44;62.04;101863.50;4902930;29;20033;-84
2021/07/10 07:17:53;;;;;;;23.08;16.13;;;;;;;19.37;61.96;101863.97;4900499;29;20045;-86
2021/07/10 07:20:23;;;;;;;22.90;17.13;;;;;;;19.26;63.02;101863.88;4867411;29;20041;-86
2021/07/10 07:22:49;;;;;;;22.10;16.02;;;;;;;19.15;63.05;101859.31;4877681;29;20044;-85
2021/07/10 07:25:16;;;;;;;23.67;16.95;;;;;;;19.48;62.84;101851.56;4847429;29;20037;-85
2021/07/10 07:27:42;;;;;;;26.50;18.83;;;;;;;19.36;63.32;101858.72;4880335;29;20036;-85
2021/07/10 07:30:08;;;;;;;24.27;17.50;;;;;;;19.09;64.68;101860.63;4897785;29;20041;-86
2021/07/10 07:32:34;;;;;;;25.15;17.63;;;;;;;18.87;65.44;101862.19;4895154;29;20056;-87
2021/07/10 07:35:03;;;;;;;29.08;18.30;;;;;;;19.13;64.89;101855.88;4892087;29;20049;-86
2021/07/10 07:37:28;;;;;;;32.38;20.38;;;;;;;19.38;64.34;101854.06;4910830;29;20045;-85
2021/07/10 07:39:55;;;;;;;29.38;19.55;;;;;;;19.38;64.47;101852.25;4882971;29;20029;-85
2021/07/10 07:42:21;;;;;;;32.45;19.85;;;;;;;19.33;64.63;101845.53;4875996;29;20045;-85
2021/07/10 07:44:47;;;;;;;31.77;20.70;;;;;;;19.41;64.89;101846.66;4894391;29;20033;-87
2021/07/10 07:47:17;;;;;;;33.53;21.00;;;;;;;19.80;63.11;101851.78;4893623;29;20033;-86
2021/07/10 07:49:43;;;;;;;35.88;21.88;;;;;;;20.13;62.61;101848.50;4858316;29;20045;-86
2021/07/10 07:52:09;;;;;;;33.35;21.10;;;;;;;20.18;62.61;101843.59;4890903;29;20068;-85
2021/07/10 07:54:35;;;;;;;37.55;22.48;;;;;;;20.10;62.45;101846.88;4889648;29;20043;-84
2021/07/10 07:57:06;;;;;;;33.00;21.65;;;;;;;20.26;61.68;101849.22;4857153;29;20033;-86
2021/07/10 07:59:33;;;;;;;32.70;21.98;;;;;;;20.26;61.54;101838.47;4886865;29;20036;-86
2021/07/10 08:01:59;;;;;;;35.03;22.30;;;;;;;20.22;61.71;101844.22;4887831;29;20060;-86
2021/07/10 08:04:28;;;;;;;34.72;21.70;;;;;;;20.37;61.54;101844.81;4887014;29;20033;-86
2021/07/10 08:06:54;;;;;;;34.42;22.63;;;;;;;20.06;61.99;101836.50;4870503;29;20044;-85
2021/07/10 08:09:20;;;;;;;33.42;22.58;;;;;;;20.29;61.59;101835.56;4859042;29;20025;-87
2021/07/10 08:11:46;;;;;;;30.88;20.27;;;;;;;20.07;62.19;101820.28;4854982;29;20575;-87
2021/07/10 08:14:15;;;;;;;33.28;20.60;;;;;;;19.75;63.02;101826.28;4887848;29;20088;-86
2021/07/10 08:16:42;;;;;;;33.78;21.65;;;;;;;20.15;61.93;101825.03;4892342;29;20039;-87
2021/07/10 08:19:08;;;;;;;37.42;23.35;;;;;;;19.72;63.18;101823.84;4865711;29;20028;-87
2021/07/10 08:21:36;;;;;;;39.30;21.75;;;;;;;20.19;61.83;101825.66;4897259;29;20068;-86
2021/07/10 08:24:07;;;;;;;33.15;21.75;;;;;;;19.73;63.31;101814.81;4882590;29;20511;-87
2021/07/10 08:26:33;;;;;;;37.60;22.77;;;;;;;19.73;62.84;101821.03;4884363;29;20037;-84
2021/07/10 08:28:59;;;;;;;35.63;22.83;;;;;;;19.79;63.24;101811.66;4914996;29;20073;-84
2021/07/10 08:31:25;;;;;;;36.30;23.13;;;;;;;19.82;63.21;101813.22;4911868;29;20021;-85
2021/07/10 08:33:52;;;;;;;33.40;23.50;;;;;;;20.49;62.01;101808.09;4923822;23;20116;-82
2021/07/10 08:36:22;;;;;;;31.27;20.58;;;;;;;20.94;59.84;101807.19;4890311;29;20040;-83
2021/07/10 08:38:48;;;;;;;30.65;21.25;;;;;;;21.25;58.88;101807.31;4885760;29;20120;-81
2021/07/10 08:41:14;;;;;;;27.73;19.88;;;;;;;22.16;55.88;101802.41;4870245;29;20045;-82
2021/07/10 08:43:44;;;;;;;26.85;18.52;;;;;;;23.01;53.24;101796.72;4887618;29;20025;-75
2021/07/10 08:46:12;;;;;;;29.60;20.90;;;;;;;23.92;51.93;101799.19;4868906;29;20124;-77
2021/07/10 08:48:38;;;;;;;29.13;20.30;;;;;;;24.93;48.89;101804.84;4886742;29;20025;-76
2021/07/10 08:51:05;;;;;;;27.80;19.77;;;;;;;24.77;48.32;101800.94;4885424;29;20081;-76
2021/07/10 08:53:32;;;;;;;28.75;18.75;;;;;;;25.13;47.23;101802.00;4885172;29;20029;-78
2021/07/10 08:55:58;;;;;;;21.00;17.25;;;;;;;24.83;47.65;101798.63;4853205;29;20040;-76
2021/07/10 08:58:24;;;;;;;21.90;16.83;;;;;;;24.04;49.76;101799.03;4868320;29;20031;-78
2021/07/10 09:00:52;;;;;;;23.42;17.00;;;;;;;24.58;48.55;101804.63;4884284;29;20041;-75
2021/07/10 09:03:18;;;;;;;21.23;16.10;;;;;;;24.85;47.49;101796.63;4867796;29;20037;-77
2021/07/10 09:05:46;;;;;;;20.77;15.70;;;;;;;24.71;47.43;101793.41;4884857;29;20076;-77
2021/07/10 09:08:16;;;;;;;19.02;14.60;;;;;;;25.92;44.97;101790.41;4868370;29;20388;-85
2021/07/10 09:10:49;;;;;;;20.10;16.00;;;;;;;25.71;44.87;101791.66;4908638;29;20077;-76
2021/07/10 09:13:15;;;;;;;20.27;14.88;;;;;;;25.34;46.04;101798.13;4891564;29;20059;-77
2021/07/10 09:15:41;;;;;;;19.08;15.45;;;;;;;25.14;46.16;101792.88;4890324;29;20041;-80
2021/07/10 09:18:11;;;;;;;18.88;15.30;;;;;;;24.71;47.39;101785.31;4907514;29;20029;-80
2021/07/10 09:20:37;;;;;;;20.50;16.25;;;;;;;24.56;47.58;101784.13;4889928;29;20096;-79
2021/07/10 09:23:23;;;;;;;20.58;15.20;;;;;;;24.07;49.09;101787.91;4903614;29;20024;-77
2021/07/10 09:25:49;;;;;;;20.60;15.50;;;;;;;24.20;48.28;101783.03;4873468;29;20037;-78
2021/07/10 09:28:14;;;;;;;23.75;17.75;;;;;;;23.57;50.07;101787.19;4904952;29;20032;-77
2021/07/10 09:30:40;;;;;;;22.88;17.67;;;;;;;24.21;48.81;101789.31;4888432;29;20231;-77
2021/07/10 09:33:16;;;;;;;22.15;16.65;;;;;;;24.26;48.39;101793.25;4905000;29;20043;-75
2021/07/10 09:35:55;;;;;;;23.33;17.48;;;;;;;23.96;48.78;101786.22;4905263;29;20044;-77
2021/07/10 09:38:28;;;;;;;24.40;18.38;;;;;;;23.81;49.80;101786.72;4905690;29;20029;-77
2021/07/10 09:41:02;;;;;;;21.50;16.95;;;;;;;23.66;50.01;101793.56;4887099;29;20041;-75
2021/07/10 09:43:29;;;;;;;28.60;19.80;;;;;;;22.43;52.84;101776.69;4904830;29;20021;-79
2021/07/10 09:45:56;;;;;;;23.38;16.70;;;;;;;22.42;53.18;101771.44;4904397;29;20445;-77
2021/07/10 09:48:26;;;;;;;22.02;17.17;;;;;;;23.40;51.17;101770.72;4888873;29;20028;-78
2021/07/10 09:51:20;;;;;;;20.77;15.07;;;;;;;24.62;47.42;101770.00;4903607;29;20059;-77
2021/07/10 09:53:59;;;;;;;25.73;15.73;;;;;;;24.58;48.04;101768.63;4887693;29;20080;-76
2021/07/10 09:56:25;;;;;;;21.25;16.27;;;;;;;23.49;50.20;101764.47;4903663;29;20420;-80
2021/07/10 09:58:51;;;;;;;20.02;14.98;;;;;;;24.25;48.62;101761.84;4902607;29;20084;-77
2021/07/10 10:01:36;;;;;;;20.88;15.05;;;;;;;25.52;45.31;101757.47;4901697;29;20040;-77
2021/07/10 10:04:18;;;;;;;19.65;14.55;;;;;;;26.72;42.36;101761.25;4900904;29;20382;-74
2021/07/10 10:06:46;;;;;;;;;;;;;;;25.85;44.08;101759.56;4886705;29;20084;-79
2021/07/10 10:09:20;;;;;;;19.75;15.95;;;;;;;25.97;44.07;101752.00;4899246;29;19919;-75
2021/07/10 10:12:11;;;;;;;22.48;16.60;;;;;;;26.11;43.51;101748.66;4867101;29;20037;-76
2021/07/10 10:14:53;;;;;;;19.20;15.93;;;;;;;26.98;41.44;101754.00;4900035;29;20043;-76
2021/07/10 10:17:22;;;;;;;19.75;15.70;;;;;;;26.33;42.89;101754.53;4900348;29;20039;-77
2021/07/10 10:19:47;;;;;;;22.88;16.65;;;;;;;26.13;43.39;101751.22;4885200;29;20119;-78
2021/07/10 10:22:15;;;;;;;22.23;17.85;;;;;;;25.85;44.35;101741.47;4885693;29;20021;-76
2021/07/10 10:24:42;;;;;;;21.65;17.73;;;;;;;26.30;43.72;101749.41;4902377;29;20028;-76
2021/07/10 10:27:08;;;;;;;24.75;17.85;;;;;;;25.86;45.45;101750.41;4884834;29;20033;-78
2021/07/10 10:29:36;;;;;;;20.58;15.60;;;;;;;25.54;44.83;101760.88;4901510;29;20036;-76
2021/07/10 10:32:02;;;;;;;20.13;16.15;;;;;;;25.74;44.14;101753.41;4901715;29;20025;-76
2021/07/10 10:34:30;;;;;;;22.98;17.17;;;;;;;24.21;48.72;101755.00;4902244;29;20078;-76
2021/07/10 10:36:56;;;;;;;21.60;15.90;;;;;;;24.32;48.40;101750.44;4901649;29;20043;-77
2021/07/10 10:39:30;;;;;;;22.83;17.80;;;;;;;24.52;47.62;101740.34;4885769;29;20419;-78
2021/07/10 10:42:02;;;;;;;22.98;16.85;;;;;;;25.12;46.53;101740.75;4884783;29;20524;-77
2021/07/10 10:44:49;;;;;;;19.55;15.32;;;;;;;25.22;45.48;101741.53;4869260;29;20064;-77
2021/07/10 10:47:14;;;;;;;27.63;17.20;;;;;;;25.16;45.61;101735.88;4885090;29;20048;-76
2021/07/10 10:49:42;;;;;;;22.25;16.92;;;;;;;25.53;45.33;101733.97;4901889;29;20400;-78
2021/07/10 10:52:35;;;;;;;24.80;17.40;;;;;;;25.82;44.18;101736.38;4900554;29;20486;-76
2021/07/10 10:55:14;;;;;;;24.88;18.27;;;;;;;24.85;46.79;101732.53;4902490;29;20490;-80
2021/07/10 10:57:47;;;;;;;24.88;18.60;;;;;;;25.34;45.64;101730.47;4885539;29;20024;-76
2021/07/10 11:00:14;;;;;;;22.27;17.38;;;;;;;25.99;43.99;101734.56;4885971;29;20040;-75
2021/07/10 11:02:43;;;;;;;23.42;17.67;;;;;;;26.25;43.55;101724.66;4902362;29;20036;-77
2021/07/10 11:05:09;;;;;;;23.20;17.77;;;;;;;26.11;44.27;101715.28;4886548;29;20039;-78
2021/07/10 11:07:36;;;;;;;23.73;17.40;;;;;;;26.62;43.65;101712.56;4870663;29;20063;-76
2021/07/10 11:10:11;;;;;;;23.30;17.48;;;;;;;27.78;41.53;101716.25;4885436;29;20029;-79
2021/07/10 11:12:58;;;;;;;21.60;15.15;;;;;;;27.14;41.60;101720.63;4902259;29;20036;-81
2021/07/10 11:15:29;;;;;;;17.42;13.82;;;;;;;26.99;42.32;101723.09;4902653;29;20024;-79
2021/07/10 11:17:55;;;;;;;16.60;12.30;;;;;;;26.55;42.49;101725.09;4901266;29;20099;-78
2021/07/10 11:20:46;;;;;;;18.05;14.07;;;;;;;25.53;44.28;101723.13;4886337;29;20035;-77
2021/07/10 11:23:25;;;;;;;20.58;14.68;;;;;;;24.74;46.53;101716.56;4902548;29;20043;-80
2021/07/10 11:25:55;;;;;;;19.15;14.02;;;;;;;24.57;46.49;101713.69;4902652;29;20201;-80